New Harbor, ME (Heathkit)

43° 52' 34"N, 69° 29' 40"W, Elevation 65 ft.
Eastern Time

Hourly observations for the last 72 hours

Date Time Temperature (°F) Humi-
dity

(%)
Wind
(mph)
Pressure Rain (in)
Air Dew 6 Hour 1 Hr 3 Hr 6 Hr Day
Alt
(in)
Sea
Level

(mb)
Max Min
26 20:00 54 47 57 47 78 SSW 4 G 13 29.50 999.0 1.12
26 19:00 51 46 82 SW 2 G 6 29.45 997.3 1.12
26 18:00 54 48 79 SSW 3 G 9 29.43 996.6 1.12
26 17:00 56 49 78 SSW 4 G 9 29.41 996.0 1.12
26 16:00 53 48 82 SSW 4 G 9 29.41 996.0 1.12
26 15:00 53 47 81 SSW 4 G 9 29.39 995.3 1.12
26 14:00 52 48 52 43 87 SSW 5 G 8 29.39 995.3 0.01 0.38 1.12
26 13:00 49 46 88 SE 2 G 7 29.39 995.3 1.12
26 12:00 48 45 88 SE 2 G 4 29.40 995.6 0.01 1.12
26 11:00 49 46 88 ESE 1 G 4 29.39 995.3 0.07 0.37 1.11
26 10:00 48 45 89 S 2 G 3 29.41 996.0 0.19 1.04
26 09:00 48 45 89 SE 1 G 2 29.42 996.3 0.11 0.84
26 08:00 48 45 48 42 89 E 0 G 2 29.44 997.0 0.02 0.07 0.58 0.74
26 07:00 47 44 89 SE 2 G 6 29.47 998.0 0.01 0.72
26 06:00 47 44 89 E 2 G 2 29.48 998.3 0.04 0.71
26 05:00 47 44 89 ESE 4 G 5 29.49 998.7 0.10 0.51 0.67
26 04:00 47 44 89 SSE 5 G 14 29.52 999.7 0.12 0.57
26 03:00 47 44 89 SSE 6 G 12 29.53 1000.0 0.29 0.45
26 02:00 47 44 48 41 89 SSE 4 G 8 29.55 1000.7 0.10 0.23 0.76 0.16
26 01:00 47 44 89 SE 5 G 10 29.58 1001.7 0.06 0.06
26 00:00 47 44 89 SE 7 G 18 29.61 1002.7 0.07 0.96
25 23:00 48 45 88 SSE 8 G 20 29.64 1003.8 0.08 0.53 0.89
25 22:00 48 45 88 SE 7 G 14 29.67 1004.8 0.16 0.81
25 21:00 47 44 88 ESE 7 G 12 29.71 1006.1 0.29 0.65
25 20:00 47 43 51 42 87 ESE 6 G 11 29.75 1007.5 0.12 0.31 0.32 0.36
25 19:00 47 43 87 ESE 6 G 9 29.78 1008.5 0.10 0.24
25 18:00 48 44 86 ESE 4 G 7 29.82 1009.9 0.09 0.14
25 17:00 48 44 85 ESE 2 G 4 29.86 1011.2 0.01 0.01 0.05
25 16:00 49 44 82 E 4 G 10 29.88 1011.9 0.04
25 15:00 50 45 82 E 5 G 10 29.91 1012.9 0.04
25 14:00 48 44 54 45 86 E 5 G 8 29.91 1012.9 0.04 0.04 0.04 0.04
25 13:00 50 44 80 ESE 5 G 9 29.97 1014.9 0.00
25 12:00 50 44 79 ESE 2 G 8 29.99 1015.6 0.00
25 11:00 52 44 74 ESE 2 G 4 30.02 1016.6 0.00
25 10:00 51 43 74 S 2 G 6 30.03 1017.0 0.00
25 09:00 52 44 73 SW 4 G 10 30.04 1017.3 0.00
25 08:00 49 42 49 40 76 S 5 G 10 30.05 1017.6 0.00
25 07:00 46 38 73 SW 5 G 8 30.07 1018.3 0.00
25 06:00 46 38 73 SW 4 G 7 30.06 1018.0 0.00
25 05:00 46 37 71 SW 5 G 7 30.06 1018.0 0.00
25 04:00 45 37 74 SW 2 G 7 30.07 1018.3 0.00
25 03:00 46 39 75 SW 2 G 7 30.08 1018.7 0.00
25 02:00 46 39 48 41 75 SSW 4 G 9 30.08 1018.7 0.00
25 01:00 46 38 73 SSW 6 G 17 30.10 1019.3 0.00
25 00:00 46 37 72 SSW 7 G 17 30.10 1019.3 0.00
24 23:00 47 37 68 SSW 6 G 15 30.10 1019.3 0.00
24 22:00 46 36 69 SSW 7 G 14 30.10 1019.3 0.00
24 21:00 47 37 69 SSW 5 G 12 30.10 1019.3 0.00
24 20:00 47 38 56 44 70 SSW 7 G 15 30.10 1019.3 0.00
24 19:00 49 39 69 SSW 7 G 17 30.10 1019.3 0.00
24 18:00 51 40 65 S 10 G 25 30.11 1019.7 0.00
24 17:00 54 40 58 S 9 G 24 30.12 1020.0 0.00
24 16:00 55 39 54 S 12 G 25 30.13 1020.4 0.00
24 15:00 54 39 57 SSW 9 G 23 30.14 1020.7 0.00
24 14:00 54 40 55 44 60 SSW 7 G 22 30.16 1021.4 0.00
24 13:00 54 40 60 SSW 7 G 16 30.17 1021.7 0.00
24 12:00 52 39 61 SSW 8 G 23 30.19 1022.4 0.00
24 11:00 51 39 64 SSW 7 G 18 30.21 1023.1 0.00
24 10:00 50 38 64 SSW 8 G 20 30.22 1023.4 0.00
24 09:00 49 38 66 SSW 6 G 14 30.22 1023.4 0.00
24 08:00 47 37 47 38 67 SW 6 G 15 30.23 1023.7 0.00
24 07:00 45 35 69 SW 7 G 14 30.23 1023.7 0.00
24 06:00 43 35 72 SSW 5 G 9 30.24 1024.1 0.00
24 05:00 42 33 70 SSW 3 G 7 30.24 1024.1 0.00
24 04:00 43 34 69 SSW 4 G 10 30.25 1024.4 0.00
24 03:00 43 35 72 WSW 2 G 6 30.25 1024.4 0.00
24 02:00 43 36 45 40 75 SW 5 G 8 30.26 1024.8 0.00
24 01:00 43 36 75 SW 3 G 9 30.27 1025.1 0.00
24 00:00 42 33 71 SW 3 G 10 30.27 1025.1 0.00
23 23:00 44 34 67 SW 4 G 12 30.28 1025.4 0.00
23 22:00 44 33 64 SW 6 G 12 30.28 1025.4 0.00
23 21:00 44 33 65 SW 5 G 13 30.27 1025.1 0.00

Data generated by WxSolution Version 1.9.1.2, Build 2018.04.08.